sensor_id;sensor_type;location;lat;lon;timestamp;P1;durP1;ratioP1;P2;durP2;ratioP2
84745;SDS011;74975;51.922;6.480;2024-01-15T00:00:34;25.42;;;12.55;;
84745;SDS011;74975;51.922;6.480;2024-01-15T00:03:09;19.80;;;10.32;;
84745;SDS011;74975;51.922;6.480;2024-01-15T00:05:44;19.92;;;10.15;;
84745;SDS011;74975;51.922;6.480;2024-01-15T00:08:16;18.95;;;9.70;;
84745;SDS011;74975;51.922;6.480;2024-01-15T00:10:47;14.40;;;8.32;;
84745;SDS011;74975;51.922;6.480;2024-01-15T00:13:22;9.57;;;4.93;;
84745;SDS011;74975;51.922;6.480;2024-01-15T00:15:53;16.77;;;7.97;;
84745;SDS011;74975;51.922;6.480;2024-01-15T00:18:25;17.92;;;7.65;;
84745;SDS011;74975;51.922;6.480;2024-01-15T00:20:56;21.58;;;11.40;;
84745;SDS011;74975;51.922;6.480;2024-01-15T00:23:31;21.80;;;11.05;;
84745;SDS011;74975;51.922;6.480;2024-01-15T00:26:03;14.07;;;7.68;;
84745;SDS011;74975;51.922;6.480;2024-01-15T00:28:37;17.00;;;10.02;;
84745;SDS011;74975;51.922;6.480;2024-01-15T00:31:12;24.23;;;11.40;;
84745;SDS011;74975;51.922;6.480;2024-01-15T00:33:46;22.00;;;11.98;;
84745;SDS011;74975;51.922;6.480;2024-01-15T00:36:23;25.13;;;10.35;;
84745;SDS011;74975;51.922;6.480;2024-01-15T00:38:54;18.42;;;7.40;;
84745;SDS011;74975;51.922;6.480;2024-01-15T00:41:26;16.73;;;7.13;;
84745;SDS011;74975;51.922;6.480;2024-01-15T00:44:00;20.27;;;9.02;;
84745;SDS011;74975;51.922;6.480;2024-01-15T00:46:35;21.27;;;9.65;;
84745;SDS011;74975;51.922;6.480;2024-01-15T00:49:13;10.60;;;4.93;;
84745;SDS011;74975;51.922;6.480;2024-01-15T00:51:45;11.52;;;6.70;;
84745;SDS011;74975;51.922;6.480;2024-01-15T00:54:20;11.82;;;7.53;;
84745;SDS011;74975;51.922;6.480;2024-01-15T00:56:55;21.10;;;7.78;;
84745;SDS011;74975;51.922;6.480;2024-01-15T00:59:27;11.00;;;5.28;;
84745;SDS011;74975;51.922;6.480;2024-01-15T01:01:59;14.02;;;7.60;;
84745;SDS011;74975;51.922;6.480;2024-01-15T01:04:38;13.88;;;6.10;;
84745;SDS011;74975;51.922;6.480;2024-01-15T01:07:13;9.27;;;6.03;;
84745;SDS011;74975;51.922;6.480;2024-01-15T01:09:45;10.95;;;5.53;;
84745;SDS011;74975;51.922;6.480;2024-01-15T01:12:21;7.75;;;4.65;;
84745;SDS011;74975;51.922;6.480;2024-01-15T01:14:56;5.10;;;3.60;;
84745;SDS011;74975;51.922;6.480;2024-01-15T01:17:30;11.00;;;5.38;;
84745;SDS011;74975;51.922;6.480;2024-01-15T01:20:06;5.68;;;3.33;;
84745;SDS011;74975;51.922;6.480;2024-01-15T01:22:39;8.35;;;4.50;;
84745;SDS011;74975;51.922;6.480;2024-01-15T01:25:10;3.92;;;2.33;;
84745;SDS011;74975;51.922;6.480;2024-01-15T01:27:46;10.10;;;3.80;;
84745;SDS011;74975;51.922;6.480;2024-01-15T01:30:17;4.22;;;2.65;;
84745;SDS011;74975;51.922;6.480;2024-01-15T01:32:48;6.63;;;3.50;;
84745;SDS011;74975;51.922;6.480;2024-01-15T01:35:20;7.95;;;2.97;;
84745;SDS011;74975;51.922;6.480;2024-01-15T01:37:51;5.40;;;1.65;;
84745;SDS011;74975;51.922;6.480;2024-01-15T01:40:25;6.10;;;2.28;;
84745;SDS011;74975;51.922;6.480;2024-01-15T01:42:58;4.30;;;2.53;;
84745;SDS011;74975;51.922;6.480;2024-01-15T01:45:34;5.05;;;3.10;;
84745;SDS011;74975;51.922;6.480;2024-01-15T01:48:09;3.70;;;2.17;;
84745;SDS011;74975;51.922;6.480;2024-01-15T01:50:44;2.25;;;2.05;;
84745;SDS011;74975;51.922;6.480;2024-01-15T01:53:24;9.02;;;3.20;;
84745;SDS011;74975;51.922;6.480;2024-01-15T01:56:03;9.88;;;2.80;;
84745;SDS011;74975;51.922;6.480;2024-01-15T01:58:42;4.65;;;2.78;;
84745;SDS011;74975;51.922;6.480;2024-01-15T02:01:20;6.63;;;3.45;;
84745;SDS011;74975;51.922;6.480;2024-01-15T02:03:55;4.13;;;3.22;;
84745;SDS011;74975;51.922;6.480;2024-01-15T02:06:27;6.18;;;3.35;;
84745;SDS011;74975;51.922;6.480;2024-01-15T02:09:06;6.15;;;3.78;;
84745;SDS011;74975;51.922;6.480;2024-01-15T02:11:45;10.82;;;4.88;;
84745;SDS011;74975;51.922;6.480;2024-01-15T02:16:55;5.40;;;3.72;;
84745;SDS011;74975;51.922;6.480;2024-01-15T02:19:34;5.65;;;4.07;;
84745;SDS011;74975;51.922;6.480;2024-01-15T02:22:07;5.28;;;3.97;;
84745;SDS011;74975;51.922;6.480;2024-01-15T02:24:39;9.45;;;5.13;;
84745;SDS011;74975;51.922;6.480;2024-01-15T02:27:09;7.07;;;4.35;;
84745;SDS011;74975;51.922;6.480;2024-01-15T02:29:47;7.88;;;5.38;;
84745;SDS011;74975;51.922;6.480;2024-01-15T02:32:20;9.88;;;4.85;;
84745;SDS011;74975;51.922;6.480;2024-01-15T02:34:51;8.95;;;3.90;;
84745;SDS011;74975;51.922;6.480;2024-01-15T02:37:27;4.20;;;3.35;;
84745;SDS011;74975;51.922;6.480;2024-01-15T02:39:55;10.60;;;5.75;;
84745;SDS011;74975;51.922;6.480;2024-01-15T02:42:30;9.18;;;5.43;;
84745;SDS011;74975;51.922;6.480;2024-01-15T02:45:06;8.20;;;4.38;;
84745;SDS011;74975;51.922;6.480;2024-01-15T02:47:37;18.02;;;7.15;;
84745;SDS011;74975;51.922;6.480;2024-01-15T02:50:12;7.40;;;5.03;;
84745;SDS011;74975;51.922;6.480;2024-01-15T02:52:47;7.63;;;5.63;;
84745;SDS011;74975;51.922;6.480;2024-01-15T02:55:21;5.18;;;3.95;;
84745;SDS011;74975;51.922;6.480;2024-01-15T02:57:53;18.30;;;5.07;;
84745;SDS011;74975;51.922;6.480;2024-01-15T03:00:28;15.80;;;6.85;;
84745;SDS011;74975;51.922;6.480;2024-01-15T03:03:03;6.22;;;3.58;;
84745;SDS011;74975;51.922;6.480;2024-01-15T03:05:34;8.43;;;5.38;;
84745;SDS011;74975;51.922;6.480;2024-01-15T03:08:06;8.07;;;6.30;;
84745;SDS011;74975;51.922;6.480;2024-01-15T03:10:37;11.48;;;5.70;;
84745;SDS011;74975;51.922;6.480;2024-01-15T03:13:12;6.55;;;4.05;;
84745;SDS011;74975;51.922;6.480;2024-01-15T03:15:50;10.65;;;6.28;;
84745;SDS011;74975;51.922;6.480;2024-01-15T03:18:23;9.73;;;5.45;;
84745;SDS011;74975;51.922;6.480;2024-01-15T03:20:58;17.30;;;6.20;;
84745;SDS011;74975;51.922;6.480;2024-01-15T03:23:32;9.95;;;4.28;;
84745;SDS011;74975;51.922;6.480;2024-01-15T03:26:04;8.57;;;4.93;;
84745;SDS011;74975;51.922;6.480;2024-01-15T03:28:40;6.65;;;4.03;;
84745;SDS011;74975;51.922;6.480;2024-01-15T03:31:12;4.80;;;4.30;;
84745;SDS011;74975;51.922;6.480;2024-01-15T03:33:46;8.77;;;4.70;;
84745;SDS011;74975;51.922;6.480;2024-01-15T03:36:21;6.70;;;2.97;;
84745;SDS011;74975;51.922;6.480;2024-01-15T03:38:54;14.52;;;5.13;;
84745;SDS011;74975;51.922;6.480;2024-01-15T03:41:26;9.98;;;3.40;;
84745;SDS011;74975;51.922;6.480;2024-01-15T03:44:01;4.47;;;3.15;;
84745;SDS011;74975;51.922;6.480;2024-01-15T03:46:33;4.50;;;2.25;;
84745;SDS011;74975;51.922;6.480;2024-01-15T03:49:04;9.27;;;3.10;;
84745;SDS011;74975;51.922;6.480;2024-01-15T03:51:39;6.18;;;3.75;;
84745;SDS011;74975;51.922;6.480;2024-01-15T03:54:15;7.25;;;3.88;;
84745;SDS011;74975;51.922;6.480;2024-01-15T03:56:50;4.10;;;3.78;;
84745;SDS011;74975;51.922;6.480;2024-01-15T03:59:22;3.47;;;2.35;;
84745;SDS011;74975;51.922;6.480;2024-01-15T04:01:53;9.13;;;4.03;;
84745;SDS011;74975;51.922;6.480;2024-01-15T04:04:25;6.32;;;3.30;;
84745;SDS011;74975;51.922;6.480;2024-01-15T04:07:00;9.02;;;2.78;;
84745;SDS011;74975;51.922;6.480;2024-01-15T04:09:39;3.63;;;2.92;;
84745;SDS011;74975;51.922;6.480;2024-01-15T04:12:14;5.47;;;3.10;;
84745;SDS011;74975;51.922;6.480;2024-01-15T04:14:50;10.00;;;3.92;;
84745;SDS011;74975;51.922;6.480;2024-01-15T04:17:22;2.92;;;2.72;;
84745;SDS011;74975;51.922;6.480;2024-01-15T04:19:48;10.15;;;3.35;;
84745;SDS011;74975;51.922;6.480;2024-01-15T04:22:27;8.30;;;4.18;;
84745;SDS011;74975;51.922;6.480;2024-01-15T04:25:01;6.15;;;4.13;;
84745;SDS011;74975;51.922;6.480;2024-01-15T04:27:36;5.03;;;3.53;;
84745;SDS011;74975;51.922;6.480;2024-01-15T04:30:11;6.43;;;3.95;;
84745;SDS011;74975;51.922;6.480;2024-01-15T04:32:43;16.15;;;3.92;;
84745;SDS011;74975;51.922;6.480;2024-01-15T04:35:20;7.72;;;3.80;;
84745;SDS011;74975;51.922;6.480;2024-01-15T04:37:51;3.65;;;2.83;;
84745;SDS011;74975;51.922;6.480;2024-01-15T04:40:20;11.63;;;4.82;;
84745;SDS011;74975;51.922;6.480;2024-01-15T04:42:58;8.55;;;3.25;;
84745;SDS011;74975;51.922;6.480;2024-01-15T04:45:29;4.72;;;3.63;;
84745;SDS011;74975;51.922;6.480;2024-01-15T04:48:08;6.32;;;3.25;;
84745;SDS011;74975;51.922;6.480;2024-01-15T04:50:39;4.32;;;3.13;;
84745;SDS011;74975;51.922;6.480;2024-01-15T04:53:11;9.95;;;4.38;;
84745;SDS011;74975;51.922;6.480;2024-01-15T04:55:49;7.03;;;3.85;;
84745;SDS011;74975;51.922;6.480;2024-01-15T04:58:20;6.50;;;4.55;;
84745;SDS011;74975;51.922;6.480;2024-01-15T05:00:56;6.40;;;3.08;;
84745;SDS011;74975;51.922;6.480;2024-01-15T05:03:28;6.22;;;3.50;;
84745;SDS011;74975;51.922;6.480;2024-01-15T05:05:59;11.20;;;5.05;;
84745;SDS011;74975;51.922;6.480;2024-01-15T05:08:31;4.68;;;3.53;;
84745;SDS011;74975;51.922;6.480;2024-01-15T05:11:03;14.07;;;3.72;;
84745;SDS011;74975;51.922;6.480;2024-01-15T05:13:35;6.18;;;3.08;;
84745;SDS011;74975;51.922;6.480;2024-01-15T05:16:12;8.18;;;4.20;;
84745;SDS011;74975;51.922;6.480;2024-01-15T05:18:43;5.22;;;3.75;;
84745;SDS011;74975;51.922;6.480;2024-01-15T05:21:16;3.30;;;3.00;;
84745;SDS011;74975;51.922;6.480;2024-01-15T05:23:47;8.38;;;3.40;;
84745;SDS011;74975;51.922;6.480;2024-01-15T05:26:21;7.85;;;4.07;;
84745;SDS011;74975;51.922;6.480;2024-01-15T05:28:53;3.20;;;2.90;;
84745;SDS011;74975;51.922;6.480;2024-01-15T05:31:24;7.15;;;3.83;;
84745;SDS011;74975;51.922;6.480;2024-01-15T05:33:58;9.52;;;4.88;;
84745;SDS011;74975;51.922;6.480;2024-01-15T05:36:31;6.72;;;4.25;;
84745;SDS011;74975;51.922;6.480;2024-01-15T05:39:03;5.30;;;4.28;;
84745;SDS011;74975;51.922;6.480;2024-01-15T05:41:41;8.63;;;4.03;;
84745;SDS011;74975;51.922;6.480;2024-01-15T05:46:49;3.30;;;3.00;;
84745;SDS011;74975;51.922;6.480;2024-01-15T05:49:21;5.18;;;3.20;;
84745;SDS011;74975;51.922;6.480;2024-01-15T05:51:57;13.80;;;3.97;;
84745;SDS011;74975;51.922;6.480;2024-01-15T05:54:36;4.95;;;3.50;;
84745;SDS011;74975;51.922;6.480;2024-01-15T05:57:10;6.15;;;3.95;;
84745;SDS011;74975;51.922;6.480;2024-01-15T05:59:41;12.77;;;5.05;;
84745;SDS011;74975;51.922;6.480;2024-01-15T06:02:14;4.72;;;3.90;;
84745;SDS011;74975;51.922;6.480;2024-01-15T06:04:45;7.47;;;5.00;;
84745;SDS011;74975;51.922;6.480;2024-01-15T06:07:19;11.57;;;4.82;;
84745;SDS011;74975;51.922;6.480;2024-01-15T06:09:51;11.07;;;3.13;;
84745;SDS011;74975;51.922;6.480;2024-01-15T06:12:24;9.10;;;3.88;;
84745;SDS011;74975;51.922;6.480;2024-01-15T06:15:00;4.90;;;4.05;;
84745;SDS011;74975;51.922;6.480;2024-01-15T06:17:31;14.13;;;5.53;;
84745;SDS011;74975;51.922;6.480;2024-01-15T06:20:06;3.42;;;2.83;;
84745;SDS011;74975;51.922;6.480;2024-01-15T06:22:46;6.65;;;4.45;;
84745;SDS011;74975;51.922;6.480;2024-01-15T06:25:20;11.43;;;7.28;;
84745;SDS011;74975;51.922;6.480;2024-01-15T06:27:55;8.85;;;6.28;;
84745;SDS011;74975;51.922;6.480;2024-01-15T06:30:30;13.00;;;5.97;;
84745;SDS011;74975;51.922;6.480;2024-01-15T06:33:06;15.38;;;5.07;;
84745;SDS011;74975;51.922;6.480;2024-01-15T06:35:40;8.13;;;4.95;;
84745;SDS011;74975;51.922;6.480;2024-01-15T06:38:20;13.90;;;5.97;;
84745;SDS011;74975;51.922;6.480;2024-01-15T06:40:48;13.38;;;6.30;;
84745;SDS011;74975;51.922;6.480;2024-01-15T06:43:20;11.15;;;6.95;;
84745;SDS011;74975;51.922;6.480;2024-01-15T06:46:01;7.75;;;5.35;;
84745;SDS011;74975;51.922;6.480;2024-01-15T06:48:29;9.05;;;5.70;;
84745;SDS011;74975;51.922;6.480;2024-01-15T06:51:07;9.68;;;5.60;;
84745;SDS011;74975;51.922;6.480;2024-01-15T06:53:38;9.93;;;5.70;;
84745;SDS011;74975;51.922;6.480;2024-01-15T06:56:15;8.23;;;5.30;;
84745;SDS011;74975;51.922;6.480;2024-01-15T06:58:49;13.70;;;6.75;;
84745;SDS011;74975;51.922;6.480;2024-01-15T07:01:21;12.93;;;7.43;;
84745;SDS011;74975;51.922;6.480;2024-01-15T07:03:52;8.30;;;5.78;;
84745;SDS011;74975;51.922;6.480;2024-01-15T07:06:30;8.07;;;6.13;;
84745;SDS011;74975;51.922;6.480;2024-01-15T07:08:59;8.75;;;5.63;;
84745;SDS011;74975;51.922;6.480;2024-01-15T07:11:25;8.90;;;5.25;;
84745;SDS011;74975;51.922;6.480;2024-01-15T07:13:58;7.28;;;5.18;;
84745;SDS011;74975;51.922;6.480;2024-01-15T07:16:33;12.18;;;6.15;;
84745;SDS011;74975;51.922;6.480;2024-01-15T07:19:06;11.38;;;5.78;;
84745;SDS011;74975;51.922;6.480;2024-01-15T07:21:44;6.18;;;5.03;;
84745;SDS011;74975;51.922;6.480;2024-01-15T07:24:19;10.68;;;4.40;;
84745;SDS011;74975;51.922;6.480;2024-01-15T07:26:53;6.82;;;4.28;;
84745;SDS011;74975;51.922;6.480;2024-01-15T07:29:25;7.60;;;5.05;;
84745;SDS011;74975;51.922;6.480;2024-01-15T07:32:00;6.25;;;4.70;;
84745;SDS011;74975;51.922;6.480;2024-01-15T07:34:33;7.13;;;3.90;;
84745;SDS011;74975;51.922;6.480;2024-01-15T07:37:10;10.00;;;4.53;;
84745;SDS011;74975;51.922;6.480;2024-01-15T07:39:35;10.82;;;4.28;;
84745;SDS011;74975;51.922;6.480;2024-01-15T07:48:47;10.77;;;4.82;;
84745;SDS011;74975;51.922;6.480;2024-01-15T07:51:27;10.40;;;5.80;;
84745;SDS011;74975;51.922;6.480;2024-01-15T07:54:01;6.80;;;4.53;;
84745;SDS011;74975;51.922;6.480;2024-01-15T07:56:33;12.07;;;7.13;;
84745;SDS011;74975;51.922;6.480;2024-01-15T07:59:08;10.43;;;7.30;;
84745;SDS011;74975;51.922;6.480;2024-01-15T08:01:43;19.15;;;10.07;;
84745;SDS011;74975;51.922;6.480;2024-01-15T08:04:18;11.73;;;7.72;;
84745;SDS011;74975;51.922;6.480;2024-01-15T08:06:51;11.40;;;7.63;;
84745;SDS011;74975;51.922;6.480;2024-01-15T08:09:22;13.27;;;9.55;;
84745;SDS011;74975;51.922;6.480;2024-01-15T08:12:01;18.55;;;11.65;;
84745;SDS011;74975;51.922;6.480;2024-01-15T08:14:33;17.50;;;7.90;;
84745;SDS011;74975;51.922;6.480;2024-01-15T08:17:07;11.13;;;8.30;;
84745;SDS011;74975;51.922;6.480;2024-01-15T08:19:47;17.08;;;9.10;;
84745;SDS011;74975;51.922;6.480;2024-01-15T08:22:22;18.15;;;10.40;;
84745;SDS011;74975;51.922;6.480;2024-01-15T08:24:56;18.33;;;9.18;;
84745;SDS011;74975;51.922;6.480;2024-01-15T08:27:28;17.52;;;9.93;;
84745;SDS011;74975;51.922;6.480;2024-01-15T08:30:00;13.32;;;7.63;;
84745;SDS011;74975;51.922;6.480;2024-01-15T08:32:35;14.75;;;9.25;;
84745;SDS011;74975;51.922;6.480;2024-01-15T08:35:11;15.20;;;8.35;;
84745;SDS011;74975;51.922;6.480;2024-01-15T08:40:18;12.98;;;8.45;;
84745;SDS011;74975;51.922;6.480;2024-01-15T08:42:49;12.10;;;5.43;;
84745;SDS011;74975;51.922;6.480;2024-01-15T08:45:25;11.35;;;6.85;;
84745;SDS011;74975;51.922;6.480;2024-01-15T08:47:56;15.23;;;7.07;;
84745;SDS011;74975;51.922;6.480;2024-01-15T08:50:31;8.88;;;5.03;;
84745;SDS011;74975;51.922;6.480;2024-01-15T08:53:03;11.77;;;7.82;;
84745;SDS011;74975;51.922;6.480;2024-01-15T08:55:33;14.25;;;7.53;;
84745;SDS011;74975;51.922;6.480;2024-01-15T08:58:08;11.05;;;6.68;;
84745;SDS011;74975;51.922;6.480;2024-01-15T09:00:43;7.68;;;5.55;;
84745;SDS011;74975;51.922;6.480;2024-01-15T09:03:14;10.52;;;6.53;;
84745;SDS011;74975;51.922;6.480;2024-01-15T09:05:47;8.70;;;5.43;;
84745;SDS011;74975;51.922;6.480;2024-01-15T09:08:22;7.57;;;4.13;;
84745;SDS011;74975;51.922;6.480;2024-01-15T09:10:53;6.97;;;4.50;;
84745;SDS011;74975;51.922;6.480;2024-01-15T09:13:26;5.75;;;4.90;;
84745;SDS011;74975;51.922;6.480;2024-01-15T09:15:58;7.90;;;7.10;;
84745;SDS011;74975;51.922;6.480;2024-01-15T09:18:33;7.43;;;4.80;;
84745;SDS011;74975;51.922;6.480;2024-01-15T09:21:05;9.40;;;5.60;;
84745;SDS011;74975;51.922;6.480;2024-01-15T09:23:40;8.77;;;6.38;;
84745;SDS011;74975;51.922;6.480;2024-01-15T09:26:11;6.97;;;5.28;;
84745;SDS011;74975;51.922;6.480;2024-01-15T09:28:43;7.75;;;5.13;;
84745;SDS011;74975;51.922;6.480;2024-01-15T09:31:14;5.75;;;5.10;;
84745;SDS011;74975;51.922;6.480;2024-01-15T09:33:48;9.30;;;5.88;;
84745;SDS011;74975;51.922;6.480;2024-01-15T09:36:24;12.85;;;6.53;;
84745;SDS011;74975;51.922;6.480;2024-01-15T09:38:57;7.25;;;5.07;;
84745;SDS011;74975;51.922;6.480;2024-01-15T09:41:29;7.35;;;4.55;;
84745;SDS011;74975;51.922;6.480;2024-01-15T09:44:00;8.90;;;5.32;;
84745;SDS011;74975;51.922;6.480;2024-01-15T09:46:33;7.78;;;5.25;;
84745;SDS011;74975;51.922;6.480;2024-01-15T09:49:05;9.02;;;5.90;;
84745;SDS011;74975;51.922;6.480;2024-01-15T09:51:37;6.35;;;3.45;;
84745;SDS011;74975;51.922;6.480;2024-01-15T09:54:10;8.70;;;5.65;;
84745;SDS011;74975;51.922;6.480;2024-01-15T09:56:48;9.65;;;5.03;;
84745;SDS011;74975;51.922;6.480;2024-01-15T09:59:23;6.13;;;3.22;;
84745;SDS011;74975;51.922;6.480;2024-01-15T10:02:01;10.88;;;5.93;;
84745;SDS011;74975;51.922;6.480;2024-01-15T10:04:39;9.52;;;5.25;;
84745;SDS011;74975;51.922;6.480;2024-01-15T10:07:14;4.82;;;3.20;;
84745;SDS011;74975;51.922;6.480;2024-01-15T10:09:50;8.43;;;5.57;;
84745;SDS011;74975;51.922;6.480;2024-01-15T10:12:21;7.70;;;5.30;;
84745;SDS011;74975;51.922;6.480;2024-01-15T10:14:58;4.25;;;3.05;;
84745;SDS011;74975;51.922;6.480;2024-01-15T10:17:32;9.40;;;4.47;;
84745;SDS011;74975;51.922;6.480;2024-01-15T10:20:11;11.32;;;5.85;;
84745;SDS011;74975;51.922;6.480;2024-01-15T10:22:46;8.23;;;3.60;;
84745;SDS011;74975;51.922;6.480;2024-01-15T10:25:24;5.47;;;4.05;;
84745;SDS011;74975;51.922;6.480;2024-01-15T10:28:04;3.85;;;2.97;;
84745;SDS011;74975;51.922;6.480;2024-01-15T10:30:40;5.28;;;4.00;;
84745;SDS011;74975;51.922;6.480;2024-01-15T10:33:16;6.47;;;3.63;;
84745;SDS011;74975;51.922;6.480;2024-01-15T10:36:00;4.65;;;3.28;;
84745;SDS011;74975;51.922;6.480;2024-01-15T10:38:34;4.70;;;3.00;;
84745;SDS011;74975;51.922;6.480;2024-01-15T10:41:11;3.95;;;3.10;;
84745;SDS011;74975;51.922;6.480;2024-01-15T10:43:43;5.47;;;2.20;;
84745;SDS011;74975;51.922;6.480;2024-01-15T10:46:16;5.45;;;3.47;;
84745;SDS011;74975;51.922;6.480;2024-01-15T10:48:49;5.03;;;3.25;;
84745;SDS011;74975;51.922;6.480;2024-01-15T10:51:28;3.25;;;2.72;;
84745;SDS011;74975;51.922;6.480;2024-01-15T10:54:05;3.40;;;2.50;;
84745;SDS011;74975;51.922;6.480;2024-01-15T10:56:38;3.42;;;2.53;;
84745;SDS011;74975;51.922;6.480;2024-01-15T11:01:43;1.92;;;1.70;;
84745;SDS011;74975;51.922;6.480;2024-01-15T11:04:19;2.08;;;1.63;;
84745;SDS011;74975;51.922;6.480;2024-01-15T11:06:58;2.90;;;1.95;;
84745;SDS011;74975;51.922;6.480;2024-01-15T11:09:30;2.15;;;1.90;;
84745;SDS011;74975;51.922;6.480;2024-01-15T11:12:06;2.25;;;1.88;;
84745;SDS011;74975;51.922;6.480;2024-01-15T11:14:47;2.97;;;2.00;;
84745;SDS011;74975;51.922;6.480;2024-01-15T11:17:25;2.42;;;2.10;;
84745;SDS011;74975;51.922;6.480;2024-01-15T11:19:58;5.03;;;1.90;;
84745;SDS011;74975;51.922;6.480;2024-01-15T11:22:47;3.65;;;2.13;;
84745;SDS011;74975;51.922;6.480;2024-01-15T11:25:19;3.83;;;2.38;;
84745;SDS011;74975;51.922;6.480;2024-01-15T11:27:57;4.85;;;2.20;;
84745;SDS011;74975;51.922;6.480;2024-01-15T11:30:38;3.25;;;2.72;;
84745;SDS011;74975;51.922;6.480;2024-01-15T11:33:52;4.18;;;2.65;;
84745;SDS011;74975;51.922;6.480;2024-01-15T11:36:05;7.18;;;4.00;;
84745;SDS011;74975;51.922;6.480;2024-01-15T11:38:39;5.40;;;3.38;;
84745;SDS011;74975;51.922;6.480;2024-01-15T11:41:14;4.28;;;2.72;;
84745;SDS011;74975;51.922;6.480;2024-01-15T11:43:43;6.50;;;3.35;;
84745;SDS011;74975;51.922;6.480;2024-01-15T11:46:21;4.90;;;3.80;;
84745;SDS011;74975;51.922;6.480;2024-01-15T11:48:53;4.30;;;3.33;;
84745;SDS011;74975;51.922;6.480;2024-01-15T11:51:38;5.85;;;3.90;;
84745;SDS011;74975;51.922;6.480;2024-01-15T11:54:15;6.80;;;3.42;;
84745;SDS011;74975;51.922;6.480;2024-01-15T11:56:54;4.85;;;3.58;;
84745;SDS011;74975;51.922;6.480;2024-01-15T11:59:32;5.88;;;4.18;;
84745;SDS011;74975;51.922;6.480;2024-01-15T12:02:11;6.43;;;2.90;;
84745;SDS011;74975;51.922;6.480;2024-01-15T12:04:59;2.72;;;2.35;;
84745;SDS011;74975;51.922;6.480;2024-01-15T12:07:37;5.13;;;3.88;;
84745;SDS011;74975;51.922;6.480;2024-01-15T12:10:19;10.32;;;3.95;;
84745;SDS011;74975;51.922;6.480;2024-01-15T12:12:55;2.85;;;1.60;;
84745;SDS011;74975;51.922;6.480;2024-01-15T12:15:29;4.72;;;3.58;;
84745;SDS011;74975;51.922;6.480;2024-01-15T12:18:05;2.65;;;1.90;;
84745;SDS011;74975;51.922;6.480;2024-01-15T12:20:37;5.25;;;1.95;;
84745;SDS011;74975;51.922;6.480;2024-01-15T12:23:11;3.40;;;2.70;;
84745;SDS011;74975;51.922;6.480;2024-01-15T12:25:47;2.28;;;1.92;;
84745;SDS011;74975;51.922;6.480;2024-01-15T12:28:27;4.00;;;2.55;;
84745;SDS011;74975;51.922;6.480;2024-01-15T12:31:04;1.77;;;1.67;;
84745;SDS011;74975;51.922;6.480;2024-01-15T12:33:39;4.07;;;1.90;;
84745;SDS011;74975;51.922;6.480;2024-01-15T12:36:11;2.45;;;2.25;;
84745;SDS011;74975;51.922;6.480;2024-01-15T12:38:47;2.58;;;2.22;;
84745;SDS011;74975;51.922;6.480;2024-01-15T12:41:29;3.63;;;2.53;;
84745;SDS011;74975;51.922;6.480;2024-01-15T12:44:07;3.72;;;2.53;;
84745;SDS011;74975;51.922;6.480;2024-01-15T12:46:43;6.63;;;3.58;;
84745;SDS011;74975;51.922;6.480;2024-01-15T12:49:19;4.32;;;1.90;;
84745;SDS011;74975;51.922;6.480;2024-01-15T12:52:07;2.33;;;1.73;;
84745;SDS011;74975;51.922;6.480;2024-01-15T12:54:39;4.07;;;2.72;;
84745;SDS011;74975;51.922;6.480;2024-01-15T12:57:15;3.90;;;2.40;;
84745;SDS011;74975;51.922;6.480;2024-01-15T12:59:57;3.88;;;3.00;;
84745;SDS011;74975;51.922;6.480;2024-01-15T13:02:35;3.28;;;2.03;;
84745;SDS011;74975;51.922;6.480;2024-01-15T13:05:09;5.03;;;2.03;;
84745;SDS011;74975;51.922;6.480;2024-01-15T13:07:44;6.47;;;2.20;;
84745;SDS011;74975;51.922;6.480;2024-01-15T13:10:23;3.95;;;2.20;;
84745;SDS011;74975;51.922;6.480;2024-01-15T13:12:59;6.85;;;2.28;;
84745;SDS011;74975;51.922;6.480;2024-01-15T13:15:42;3.33;;;2.88;;
84745;SDS011;74975;51.922;6.480;2024-01-15T13:18:16;2.47;;;2.15;;
84745;SDS011;74975;51.922;6.480;2024-01-15T13:20:48;3.67;;;2.03;;
84745;SDS011;74975;51.922;6.480;2024-01-15T13:23:29;2.85;;;2.17;;
84745;SDS011;74975;51.922;6.480;2024-01-15T13:26:05;2.20;;;2.00;;
84745;SDS011;74975;51.922;6.480;2024-01-15T13:28:46;2.03;;;1.75;;
84745;SDS011;74975;51.922;6.480;2024-01-15T13:31:25;2.85;;;1.27;;
84745;SDS011;74975;51.922;6.480;2024-01-15T13:33:59;4.60;;;1.42;;
84745;SDS011;74975;51.922;6.480;2024-01-15T13:36:34;3.83;;;1.52;;
84745;SDS011;74975;51.922;6.480;2024-01-15T13:39:12;2.03;;;1.83;;
84745;SDS011;74975;51.922;6.480;2024-01-15T13:41:51;2.95;;;1.50;;
84745;SDS011;74975;51.922;6.480;2024-01-15T13:44:29;1.52;;;1.42;;
84745;SDS011;74975;51.922;6.480;2024-01-15T13:47:05;1.50;;;1.40;;
84745;SDS011;74975;51.922;6.480;2024-01-15T13:49:40;5.55;;;1.30;;
84745;SDS011;74975;51.922;6.480;2024-01-15T13:52:12;2.80;;;1.60;;
84745;SDS011;74975;51.922;6.480;2024-01-15T13:54:48;1.85;;;1.38;;
84745;SDS011;74975;51.922;6.480;2024-01-15T13:57:20;2.22;;;2.05;;
84745;SDS011;74975;51.922;6.480;2024-01-15T13:59:55;3.47;;;1.40;;
84745;SDS011;74975;51.922;6.480;2024-01-15T14:02:40;3.45;;;2.15;;
84745;SDS011;74975;51.922;6.480;2024-01-15T14:05:21;3.40;;;1.90;;
84745;SDS011;74975;51.922;6.480;2024-01-15T14:07:54;4.30;;;2.38;;
84745;SDS011;74975;51.922;6.480;2024-01-15T14:10:32;1.63;;;1.52;;
84745;SDS011;74975;51.922;6.480;2024-01-15T14:13:08;2.15;;;1.35;;
84745;SDS011;74975;51.922;6.480;2024-01-15T14:15:50;2.50;;;1.67;;
84745;SDS011;74975;51.922;6.480;2024-01-15T14:18:27;2.20;;;1.63;;
84745;SDS011;74975;51.922;6.480;2024-01-15T14:21:05;6.78;;;2.10;;
84745;SDS011;74975;51.922;6.480;2024-01-15T14:23:46;3.22;;;1.40;;
84745;SDS011;74975;51.922;6.480;2024-01-15T14:26:20;4.05;;;2.17;;
84745;SDS011;74975;51.922;6.480;2024-01-15T14:28:54;2.78;;;2.25;;
84745;SDS011;74975;51.922;6.480;2024-01-15T14:34:01;1.75;;;1.30;;
84745;SDS011;74975;51.922;6.480;2024-01-15T14:36:34;1.42;;;1.33;;
84745;SDS011;74975;51.922;6.480;2024-01-15T14:39:05;4.50;;;1.95;;
84745;SDS011;74975;51.922;6.480;2024-01-15T14:41:43;3.45;;;2.40;;
84745;SDS011;74975;51.922;6.480;2024-01-15T14:44:24;1.65;;;1.27;;
84745;SDS011;74975;51.922;6.480;2024-01-15T14:46:56;1.63;;;1.52;;
84745;SDS011;74975;51.922;6.480;2024-01-15T14:52:06;4.75;;;1.65;;
84745;SDS011;74975;51.922;6.480;2024-01-15T14:54:42;2.63;;;2.42;;
84745;SDS011;74975;51.922;6.480;2024-01-15T14:57:13;3.25;;;1.75;;
84745;SDS011;74975;51.922;6.480;2024-01-15T14:59:45;4.15;;;1.92;;
84745;SDS011;74975;51.922;6.480;2024-01-15T15:02:20;2.45;;;0.93;;
84745;SDS011;74975;51.922;6.480;2024-01-15T15:04:57;8.63;;;1.55;;
84745;SDS011;74975;51.922;6.480;2024-01-15T15:07:28;3.10;;;1.83;;
84745;SDS011;74975;51.922;6.480;2024-01-15T15:09:58;2.40;;;1.88;;
84745;SDS011;74975;51.922;6.480;2024-01-15T15:12:31;4.13;;;2.10;;
84745;SDS011;74975;51.922;6.480;2024-01-15T15:15:03;7.63;;;2.33;;
84745;SDS011;74975;51.922;6.480;2024-01-15T15:17:38;2.28;;;1.95;;
84745;SDS011;74975;51.922;6.480;2024-01-15T15:20:17;5.30;;;2.22;;
84745;SDS011;74975;51.922;6.480;2024-01-15T15:22:52;5.35;;;1.90;;
84745;SDS011;74975;51.922;6.480;2024-01-15T15:25:27;5.25;;;2.28;;
84745;SDS011;74975;51.922;6.480;2024-01-15T15:27:58;3.80;;;1.90;;
84745;SDS011;74975;51.922;6.480;2024-01-15T15:30:38;4.35;;;3.20;;
84745;SDS011;74975;51.922;6.480;2024-01-15T15:33:22;2.22;;;1.83;;
84745;SDS011;74975;51.922;6.480;2024-01-15T15:35:58;8.07;;;2.10;;
84745;SDS011;74975;51.922;6.480;2024-01-15T15:38:35;5.65;;;1.92;;
84745;SDS011;74975;51.922;6.480;2024-01-15T15:41:18;2.35;;;1.25;;
84745;SDS011;74975;51.922;6.480;2024-01-15T15:43:56;4.28;;;1.65;;
84745;SDS011;74975;51.922;6.480;2024-01-15T15:46:35;2.38;;;1.50;;
84745;SDS011;74975;51.922;6.480;2024-01-15T15:49:08;3.13;;;1.58;;